createdAt,value
2022-10-26T00:00:11.955Z,3.80
2022-10-26T00:02:39.222Z,3.90
2022-10-26T00:05:07.431Z,3.70
2022-10-26T00:07:34.518Z,3.83
2022-10-26T00:10:01.635Z,3.60
2022-10-26T00:12:28.734Z,3.85
2022-10-26T00:14:55.778Z,4.03
2022-10-26T00:17:23.378Z,3.72
2022-10-26T00:19:50.470Z,3.30
2022-10-26T00:22:17.574Z,3.53
2022-10-26T00:24:44.627Z,4.05
2022-10-26T00:27:11.714Z,3.88
2022-10-26T00:29:38.774Z,3.70
2022-10-26T00:32:06.645Z,3.92
2022-10-26T00:34:33.710Z,3.70
2022-10-26T00:37:00.757Z,3.65
2022-10-26T00:39:27.923Z,3.40
2022-10-26T00:41:54.992Z,3.33
2022-10-26T00:44:42.227Z,3.55
2022-10-26T00:47:11.802Z,3.50
2022-10-26T00:49:39.105Z,3.47
2022-10-26T00:52:07.574Z,3.50
2022-10-26T00:54:34.694Z,3.30
2022-10-26T00:57:02.010Z,3.17
2022-10-26T00:59:29.066Z,3.57
2022-10-26T01:01:56.277Z,3.40
2022-10-26T01:04:23.494Z,3.30
2022-10-26T01:06:50.605Z,3.53
2022-10-26T01:09:18.610Z,3.47
2022-10-26T01:11:45.722Z,3.42
2022-10-26T01:14:14.158Z,3.80
2022-10-26T01:16:42.809Z,4.15
2022-10-26T01:19:29.972Z,4.90
2022-10-26T01:21:59.555Z,4.10
2022-10-26T01:24:36.437Z,3.70
2022-10-26T01:27:23.419Z,3.45
2022-10-26T01:30:00.777Z,3.50
2022-10-26T01:32:30.726Z,3.60
2022-10-26T01:35:02.618Z,3.78
2022-10-26T01:37:31.630Z,4.00
2022-10-26T01:40:00.825Z,4.00
2022-10-26T01:42:29.105Z,4.28
2022-10-26T01:44:58.453Z,4.57
2022-10-26T01:47:26.689Z,4.32
2022-10-26T01:49:55.389Z,4.25
2022-10-26T01:52:22.509Z,3.78
2022-10-26T01:54:49.578Z,3.72
2022-10-26T01:57:18.353Z,4.80
2022-10-26T01:59:45.465Z,4.95
2022-10-26T02:02:12.538Z,4.60
2022-10-26T02:04:39.593Z,5.15
2022-10-26T02:07:33.294Z,3.80
2022-10-26T02:10:08.968Z,3.97
2022-10-26T02:12:42.404Z,3.80
2022-10-26T02:15:13.029Z,3.90
2022-10-26T02:18:00.158Z,4.18
2022-10-26T02:20:36.801Z,3.90
2022-10-26T02:23:05.937Z,4.80
2022-10-26T02:25:34.676Z,4.82
2022-10-26T02:28:05.421Z,4.57
2022-10-26T02:30:33.437Z,4.40
2022-10-26T02:33:00.776Z,4.47
2022-10-26T02:35:31.604Z,4.00
2022-10-26T02:38:01.492Z,4.20
2022-10-26T02:40:29.680Z,4.85
2022-10-26T02:42:58.837Z,4.43
2022-10-26T02:45:27.696Z,4.35
2022-10-26T02:47:55.345Z,4.30
2022-10-26T02:50:24.770Z,4.78
2022-10-26T02:53:07.461Z,4.53
2022-10-26T02:55:34.421Z,4.93
2022-10-26T02:58:04.284Z,4.53
2022-10-26T03:00:31.685Z,4.85
2022-10-26T03:02:59.680Z,4.80
2022-10-26T03:05:27.862Z,4.60
2022-10-26T03:07:56.072Z,4.60
2022-10-26T03:10:23.236Z,4.88
2022-10-26T03:12:50.854Z,4.93
2022-10-26T03:15:18.120Z,4.17
2022-10-26T03:17:44.847Z,4.80
2022-10-26T03:20:13.351Z,5.03
2022-10-26T03:22:40.416Z,4.50
2022-10-26T03:27:35.728Z,4.65
2022-10-26T03:30:02.833Z,4.97
2022-10-26T03:32:29.472Z,4.37
2022-10-26T03:34:56.540Z,4.93
2022-10-26T03:37:23.616Z,4.45
2022-10-26T03:39:50.677Z,4.73
2022-10-26T03:42:17.703Z,4.90
2022-10-26T03:44:44.783Z,5.03
2022-10-26T03:47:11.819Z,4.80
2022-10-26T03:49:38.835Z,5.00
2022-10-26T03:52:05.933Z,4.63
2022-10-26T03:54:32.960Z,4.75
2022-10-26T03:57:00.031Z,4.55
2022-10-26T03:59:27.051Z,5.45
2022-10-26T04:01:56.913Z,5.20
2022-10-26T04:04:25.204Z,5.10
2022-10-26T04:06:53.207Z,4.68
2022-10-26T04:09:20.305Z,4.90
2022-10-26T04:11:47.447Z,5.43
2022-10-26T04:14:14.505Z,6.75
2022-10-26T04:16:41.704Z,7.38
2022-10-26T04:19:08.827Z,7.18
2022-10-26T04:21:35.943Z,6.90
2022-10-26T04:24:03.235Z,6.60
2022-10-26T04:26:30.363Z,6.65
2022-10-26T04:28:57.603Z,7.43
2022-10-26T04:31:24.682Z,7.05
2022-10-26T04:33:51.747Z,6.82
2022-10-26T04:36:18.813Z,6.55
2022-10-26T04:38:45.879Z,5.90
2022-10-26T04:41:13.028Z,5.77
2022-10-26T04:43:39.651Z,5.80
2022-10-26T04:46:06.863Z,5.95
2022-10-26T04:48:33.900Z,6.13
2022-10-26T04:51:01.606Z,6.38
2022-10-26T04:53:28.906Z,5.95
2022-10-26T04:55:58.063Z,5.90
2022-10-26T04:58:25.175Z,6.10
2022-10-26T05:00:52.306Z,6.85
2022-10-26T05:03:19.379Z,6.10
2022-10-26T05:05:47.745Z,6.25
2022-10-26T05:08:15.463Z,6.93
2022-10-26T05:10:42.848Z,6.72
2022-10-26T05:13:11.359Z,7.60
2022-10-26T05:15:38.436Z,7.60
2022-10-26T05:18:06.136Z,7.55
2022-10-26T05:20:35.108Z,7.28
2022-10-26T05:23:03.172Z,6.72
2022-10-26T05:25:32.326Z,5.93
2022-10-26T05:28:00.025Z,5.95
2022-10-26T05:30:27.439Z,5.90
2022-10-26T05:32:55.320Z,5.60
2022-10-26T05:35:22.370Z,5.75
2022-10-26T05:37:49.462Z,6.15
2022-10-26T05:40:17.568Z,6.40
2022-10-26T05:42:44.909Z,5.87
2022-10-26T05:45:12.130Z,6.17
2022-10-26T05:47:42.980Z,5.77
2022-10-26T05:50:10.470Z,6.07
2022-10-26T05:52:41.127Z,6.40
2022-10-26T05:55:10.040Z,6.78
2022-10-26T05:57:37.678Z,6.78
2022-10-26T06:00:07.958Z,7.10
2022-10-26T06:02:45.703Z,6.78
2022-10-26T06:05:16.605Z,6.13
2022-10-26T06:07:43.825Z,5.80
2022-10-26T06:10:12.168Z,5.60
2022-10-26T06:12:39.393Z,6.25
2022-10-26T06:15:06.789Z,6.88
2022-10-26T06:17:34.873Z,6.75
2022-10-26T06:20:22.155Z,7.07
2022-10-26T06:22:55.445Z,7.72
2022-10-26T06:25:26.017Z,7.13
2022-10-26T06:27:57.645Z,6.75
2022-10-26T06:30:24.761Z,6.50
2022-10-26T06:33:01.400Z,6.47
2022-10-26T06:35:43.061Z,7.30
2022-10-26T06:38:12.415Z,6.35
2022-10-26T06:40:41.362Z,6.28
2022-10-26T06:43:13.874Z,6.10
2022-10-26T06:45:43.932Z,5.50
2022-10-26T06:48:14.364Z,6.20
2022-10-26T06:50:45.897Z,5.80
2022-10-26T06:53:16.260Z,5.80
2022-10-26T06:55:45.020Z,6.07
2022-10-26T06:58:20.647Z,5.45
2022-10-26T07:00:49.305Z,5.55
2022-10-26T07:03:16.493Z,5.85
2022-10-26T07:05:44.880Z,5.47
2022-10-26T07:08:12.693Z,5.60
2022-10-26T07:10:40.248Z,5.50
2022-10-26T07:13:07.417Z,5.40
2022-10-26T07:15:35.013Z,5.20
2022-10-26T07:18:03.217Z,5.10
2022-10-26T07:20:30.197Z,5.18
2022-10-26T07:22:57.683Z,4.93
2022-10-26T07:25:25.616Z,4.60
2022-10-26T07:27:52.670Z,4.43
2022-10-26T07:30:19.740Z,4.30
2022-10-26T07:32:47.008Z,4.30
2022-10-26T07:35:14.727Z,4.07
2022-10-26T07:37:41.784Z,4.17
2022-10-26T07:40:09.122Z,4.80
2022-10-26T07:42:37.403Z,4.40
2022-10-26T07:45:04.841Z,4.80
2022-10-26T07:47:31.931Z,5.00
2022-10-26T07:49:59.043Z,4.28
2022-10-26T07:52:26.055Z,4.20
2022-10-26T07:54:53.133Z,4.07
2022-10-26T07:57:20.246Z,4.03
2022-10-26T07:59:47.348Z,3.85
2022-10-26T08:02:14.489Z,3.90
2022-10-26T08:04:41.595Z,3.53
2022-10-26T08:07:08.643Z,3.90
2022-10-26T08:09:35.810Z,3.72
2022-10-26T08:12:02.883Z,3.78
2022-10-26T08:14:30.024Z,3.90
2022-10-26T08:16:57.043Z,4.25
2022-10-26T08:19:24.063Z,4.07
2022-10-26T08:21:51.180Z,3.60
2022-10-26T08:24:18.226Z,3.65
2022-10-26T08:26:45.319Z,3.47
2022-10-26T08:29:12.408Z,3.42
2022-10-26T08:31:39.486Z,3.38
2022-10-26T08:34:06.518Z,2.60
2022-10-26T08:36:33.618Z,3.00
2022-10-26T08:41:37.580Z,3.90
2022-10-26T08:44:08.886Z,4.40
2022-10-26T08:46:38.444Z,4.30
2022-10-26T08:49:14.466Z,4.63
2022-10-26T08:51:42.293Z,3.90
2022-10-26T08:54:14.841Z,4.22
2022-10-26T08:56:45.996Z,3.63
2022-10-26T08:59:26.713Z,3.85
2022-10-26T09:01:54.597Z,3.88
2022-10-26T09:04:27.084Z,3.85
2022-10-26T09:06:55.086Z,4.05
2022-10-26T09:09:26.479Z,3.90
2022-10-26T09:12:00.977Z,4.05
2022-10-26T09:14:33.522Z,4.00
2022-10-26T09:17:00.565Z,3.85
2022-10-26T09:19:29.011Z,4.32
2022-10-26T09:21:56.003Z,3.45
2022-10-26T09:24:40.138Z,3.28
2022-10-26T09:27:20.879Z,2.80
2022-10-26T09:29:48.793Z,3.08
2022-10-26T09:32:35.778Z,2.80
2022-10-26T09:35:04.930Z,3.30
2022-10-26T09:37:35.510Z,3.17
2022-10-26T09:40:22.462Z,3.00
2022-10-26T09:42:59.921Z,2.78
2022-10-26T09:45:31.125Z,2.60
2022-10-26T09:48:05.183Z,2.58
2022-10-26T09:50:35.079Z,2.73
2022-10-26T09:53:02.301Z,2.90
2022-10-26T09:55:30.365Z,2.92
2022-10-26T09:57:59.627Z,2.70
2022-10-26T10:00:28.804Z,2.80
2022-10-26T10:02:57.533Z,2.47
2022-10-26T10:05:49.361Z,2.17
2022-10-26T10:08:22.113Z,1.98
2022-10-26T10:10:59.801Z,1.92
2022-10-26T10:13:28.425Z,2.10
2022-10-26T10:15:57.500Z,2.00
2022-10-26T10:18:24.870Z,1.80
2022-10-26T10:20:53.220Z,2.15
2022-10-26T10:23:26.980Z,1.95
2022-10-26T10:26:02.333Z,2.15
2022-10-26T10:28:30.075Z,2.30
2022-10-26T10:30:59.593Z,2.17
2022-10-26T10:33:34.764Z,2.30
2022-10-26T10:36:02.273Z,2.20
2022-10-26T10:38:29.638Z,2.00
2022-10-26T10:40:59.548Z,2.00
2022-10-26T10:43:27.285Z,1.92
2022-10-26T10:45:58.649Z,2.37
2022-10-26T10:48:28.878Z,2.08
2022-10-26T10:50:57.248Z,2.30
2022-10-26T10:53:27.608Z,2.08
2022-10-26T10:56:14.601Z,2.17
2022-10-26T10:58:41.645Z,2.03
2022-10-26T11:01:13.782Z,2.10
2022-10-26T11:03:41.996Z,2.10
2022-10-26T11:06:16.716Z,2.10
2022-10-26T11:08:46.991Z,2.22
2022-10-26T11:11:17.637Z,1.80
2022-10-26T11:13:49.328Z,1.90
2022-10-26T11:16:19.955Z,2.28
2022-10-26T11:18:51.580Z,2.65
2022-10-26T11:21:37.846Z,2.25
2022-10-26T11:24:11.362Z,2.10
2022-10-26T11:26:45.155Z,2.40
2022-10-26T11:29:22.633Z,1.97
2022-10-26T11:31:55.912Z,1.90
2022-10-26T11:34:41.583Z,2.30
2022-10-26T11:37:14.039Z,2.30
2022-10-26T11:39:45.215Z,1.90
2022-10-26T11:42:20.974Z,2.30
2022-10-26T11:44:52.708Z,2.05
2022-10-26T11:47:34.807Z,2.10
2022-10-26T11:50:21.931Z,2.57
2022-10-26T11:52:50.460Z,2.40
2022-10-26T11:55:18.255Z,2.38
2022-10-26T11:57:46.539Z,2.35
2022-10-26T12:00:13.561Z,2.22
2022-10-26T12:05:16.075Z,2.30
2022-10-26T12:07:47.356Z,2.20
2022-10-26T12:10:23.990Z,2.40
2022-10-26T12:12:54.835Z,1.93
2022-10-26T12:15:35.176Z,2.03
2022-10-26T12:18:12.738Z,2.20
2022-10-26T12:20:47.195Z,2.20
2022-10-26T12:23:23.155Z,2.08
2022-10-26T12:26:21.012Z,2.10
2022-10-26T12:28:52.303Z,2.15
2022-10-26T12:31:36.809Z,2.03
2022-10-26T12:34:05.823Z,1.90
2022-10-26T12:36:52.828Z,1.98
2022-10-26T12:39:28.688Z,1.63
2022-10-26T12:41:58.111Z,2.08
2022-10-26T12:44:46.082Z,2.20
2022-10-26T12:47:33.130Z,1.92
2022-10-26T12:50:07.458Z,2.08
2022-10-26T12:52:40.682Z,2.38
2022-10-26T12:55:27.642Z,2.13
2022-10-26T12:58:01.993Z,1.90
2022-10-26T13:00:29.299Z,2.33
2022-10-26T13:02:59.698Z,2.35
2022-10-26T13:05:42.417Z,2.40
2022-10-26T13:08:10.910Z,2.13
2022-10-26T13:10:41.095Z,2.40
2022-10-26T13:13:08.863Z,2.10
2022-10-26T13:15:40.371Z,2.40
2022-10-26T13:18:07.427Z,2.42
2022-10-26T13:20:35.501Z,2.13
2022-10-26T13:23:03.366Z,2.30
2022-10-26T13:25:31.447Z,2.10
2022-10-26T13:27:58.664Z,2.00
2022-10-26T13:30:45.711Z,2.17
2022-10-26T13:33:17.582Z,2.33
2022-10-26T13:35:45.031Z,2.50
2022-10-26T13:38:13.125Z,2.17
2022-10-26T13:40:40.707Z,1.95
2022-10-26T13:43:12.569Z,1.90
2022-10-26T13:45:53.900Z,2.00
2022-10-26T13:48:24.751Z,2.50
2022-10-26T13:53:43.370Z,1.85
2022-10-26T13:56:27.953Z,1.90
2022-10-26T13:59:11.640Z,1.90
2022-10-26T14:01:38.893Z,2.00
2022-10-26T14:04:25.909Z,1.98
2022-10-26T14:06:53.821Z,2.10
2022-10-26T14:09:21.565Z,2.00
2022-10-26T14:11:50.121Z,1.73
2022-10-26T14:14:20.349Z,1.80
2022-10-26T14:16:48.881Z,1.83
2022-10-26T14:19:20.415Z,1.70
2022-10-26T14:21:50.053Z,1.95
2022-10-26T14:24:24.854Z,1.63
2022-10-26T14:27:03.081Z,1.90
2022-10-26T14:29:33.297Z,2.08
2022-10-26T14:32:00.385Z,2.47
2022-10-26T14:34:27.477Z,1.83
2022-10-26T14:36:55.276Z,1.70
2022-10-26T14:39:40.813Z,2.03
2022-10-26T14:42:13.311Z,1.90
2022-10-26T14:44:40.469Z,1.88
2022-10-26T14:47:14.238Z,2.72
2022-10-26T14:49:45.882Z,2.22
2022-10-26T14:52:17.260Z,2.17
2022-10-26T14:54:56.953Z,2.17
2022-10-26T14:57:40.389Z,2.10
2022-10-26T15:00:24.310Z,1.77
2022-10-26T15:05:23.953Z,2.30
2022-10-26T15:07:52.235Z,2.20
2022-10-26T15:10:39.394Z,2.47
2022-10-26T15:13:09.740Z,3.10
2022-10-26T15:15:39.578Z,2.80
2022-10-26T15:18:14.780Z,2.17
2022-10-26T15:20:47.560Z,2.15
2022-10-26T15:23:15.361Z,2.55
2022-10-26T15:25:49.468Z,2.28
2022-10-26T15:28:22.768Z,2.92
2022-10-26T15:31:05.383Z,2.53
2022-10-26T15:33:33.153Z,2.40
2022-10-26T15:36:20.131Z,2.45
2022-10-26T15:38:48.761Z,3.70
2022-10-26T15:41:18.436Z,4.25
2022-10-26T15:43:48.073Z,4.30
2022-10-26T15:46:15.323Z,3.30
2022-10-26T15:48:42.778Z,2.45
2022-10-26T15:51:13.921Z,2.20
2022-10-26T15:53:40.965Z,2.38
2022-10-26T15:56:14.382Z,2.43
2022-10-26T15:58:41.329Z,2.53
2022-10-26T16:01:08.488Z,2.10
2022-10-26T16:03:35.585Z,1.98
2022-10-26T16:06:03.194Z,2.00
2022-10-26T16:08:31.005Z,2.10
2022-10-26T16:10:58.350Z,3.40
2022-10-26T16:13:26.678Z,2.30
2022-10-26T16:15:53.405Z,2.80
2022-10-26T16:18:20.449Z,2.78
2022-10-26T16:20:47.673Z,2.75
2022-10-26T16:23:14.766Z,2.53
2022-10-26T16:25:43.508Z,2.60
2022-10-26T16:28:11.909Z,3.05
2022-10-26T16:33:06.008Z,2.40
2022-10-26T16:35:33.078Z,2.90
2022-10-26T16:38:00.237Z,2.40
2022-10-26T16:40:27.379Z,2.60
2022-10-26T16:42:54.479Z,2.60
2022-10-26T16:45:21.636Z,2.90
2022-10-26T16:47:49.492Z,2.37
2022-10-26T16:50:20.410Z,2.33
2022-10-26T16:52:47.438Z,2.40
2022-10-26T16:55:14.433Z,2.50
2022-10-26T16:57:41.107Z,2.83
2022-10-26T17:00:08.485Z,2.90
2022-10-26T17:02:35.697Z,2.70
2022-10-26T17:05:06.940Z,2.80
2022-10-26T17:07:34.446Z,2.28
2022-10-26T17:10:01.530Z,2.78
2022-10-26T17:12:28.293Z,2.38
2022-10-26T17:14:57.087Z,2.45
2022-10-26T17:17:24.187Z,2.63
2022-10-26T17:19:51.131Z,3.13
2022-10-26T17:22:17.778Z,3.80
2022-10-26T17:24:44.838Z,3.53
2022-10-26T17:27:12.078Z,2.93
2022-10-26T17:29:39.140Z,4.63
2022-10-26T17:32:06.214Z,4.00
2022-10-26T17:34:33.286Z,3.27
2022-10-26T17:37:00.338Z,3.33
2022-10-26T17:39:27.670Z,5.32
2022-10-26T17:41:54.744Z,3.60
2022-10-26T17:44:22.146Z,3.90
2022-10-26T17:46:49.224Z,4.70
2022-10-26T17:49:16.274Z,4.30
2022-10-26T17:51:43.350Z,4.40
2022-10-26T17:54:10.517Z,4.82
2022-10-26T17:56:37.638Z,5.15
2022-10-26T17:59:06.017Z,5.75
2022-10-26T18:01:33.262Z,5.93
2022-10-26T18:04:01.103Z,7.22
2022-10-26T18:06:28.489Z,6.07
2022-10-26T18:08:57.397Z,6.32
2022-10-26T18:11:27.243Z,5.53
2022-10-26T18:13:56.574Z,10.03
2022-10-26T18:16:24.327Z,10.00
2022-10-26T18:18:59.795Z,8.02
2022-10-26T18:21:27.377Z,7.53
2022-10-26T18:23:54.769Z,6.85
2022-10-26T18:26:23.383Z,8.23
2022-10-26T18:28:50.588Z,9.48
2022-10-26T18:31:18.941Z,9.30
2022-10-26T18:33:45.655Z,8.20
2022-10-26T18:36:13.903Z,10.48
2022-10-26T18:38:41.490Z,8.43
2022-10-26T18:41:09.260Z,8.48
2022-10-26T18:43:39.750Z,7.72
2022-10-26T18:46:08.109Z,7.60
2022-10-26T18:48:35.525Z,6.63
2022-10-26T18:51:03.856Z,5.65
2022-10-26T18:53:32.441Z,6.05
2022-10-26T18:56:01.567Z,5.97
2022-10-26T18:58:37.427Z,6.00
2022-10-26T19:01:06.051Z,6.27
2022-10-26T19:03:33.184Z,6.80
2022-10-26T19:06:07.589Z,6.20
2022-10-26T19:08:34.669Z,7.07
2022-10-26T19:11:02.690Z,6.90
2022-10-26T19:13:29.779Z,7.20
2022-10-26T19:16:17.372Z,6.90
2022-10-26T19:18:56.142Z,5.93
2022-10-26T19:21:23.728Z,6.47
2022-10-26T19:23:53.609Z,5.68
2022-10-26T19:26:22.122Z,6.20
2022-10-26T19:28:55.104Z,6.47
2022-10-26T19:31:24.879Z,5.70
2022-10-26T19:33:56.354Z,4.90
2022-10-26T19:36:23.444Z,5.18
2022-10-26T19:38:50.503Z,4.97
2022-10-26T19:41:17.716Z,4.38
2022-10-26T19:43:45.317Z,4.07
2022-10-26T19:46:13.680Z,4.70
2022-10-26T19:48:41.584Z,4.97
2022-10-26T19:51:09.103Z,5.32
2022-10-26T19:53:36.296Z,5.40
2022-10-26T19:56:03.852Z,5.97
2022-10-26T19:58:31.936Z,5.30
2022-10-26T20:01:00.196Z,5.63
2022-10-26T20:03:28.928Z,5.47
2022-10-26T20:05:56.975Z,5.17
2022-10-26T20:08:24.498Z,5.70
2022-10-26T20:10:53.747Z,5.50
2022-10-26T20:13:20.951Z,5.88
2022-10-26T20:15:49.460Z,6.20
2022-10-26T20:18:16.518Z,6.27
2022-10-26T20:20:43.610Z,6.05
2022-10-26T20:23:11.007Z,5.80
2022-10-26T20:25:38.788Z,6.38
2022-10-26T20:28:06.468Z,5.90
2022-10-26T20:30:35.453Z,6.43
2022-10-26T20:33:02.149Z,6.28
2022-10-26T20:35:29.259Z,6.30
2022-10-26T20:37:56.444Z,8.48
2022-10-26T20:40:24.014Z,8.35
2022-10-26T20:42:52.442Z,7.90
2022-10-26T20:45:24.331Z,8.05
2022-10-26T20:47:51.800Z,7.72
2022-10-26T20:50:19.499Z,8.10
2022-10-26T20:52:49.312Z,6.93
2022-10-26T20:55:23.499Z,7.03
2022-10-26T20:57:55.336Z,6.63
2022-10-26T21:00:22.561Z,6.35
2022-10-26T21:02:49.927Z,6.15
2022-10-26T21:05:19.019Z,6.30
2022-10-26T21:07:46.095Z,6.50
2022-10-26T21:10:13.293Z,6.43
2022-10-26T21:12:40.989Z,5.80
2022-10-26T21:15:08.310Z,6.30
2022-10-26T21:17:35.380Z,6.97
2022-10-26T21:20:02.465Z,5.95
2022-10-26T21:22:29.500Z,6.63
2022-10-26T21:24:56.550Z,6.97
2022-10-26T21:27:23.667Z,6.93
2022-10-26T21:29:50.793Z,6.35
2022-10-26T21:32:17.863Z,6.97
2022-10-26T21:34:44.893Z,6.65
2022-10-26T21:37:11.951Z,6.50
2022-10-26T21:39:39.002Z,6.28
2022-10-26T21:42:06.078Z,6.47
2022-10-26T21:44:40.825Z,6.40
2022-10-26T21:47:08.302Z,7.40
2022-10-26T21:49:35.037Z,7.75
2022-10-26T21:52:02.277Z,7.75
2022-10-26T21:54:29.321Z,7.82
2022-10-26T21:56:56.379Z,7.95
2022-10-26T21:59:23.416Z,8.60
2022-10-26T22:01:50.640Z,7.65
2022-10-26T22:04:17.853Z,7.67
2022-10-26T22:06:44.870Z,7.40
2022-10-26T22:09:11.947Z,8.50
2022-10-26T22:11:39.010Z,7.75
2022-10-26T22:14:06.074Z,6.53
2022-10-26T22:16:33.371Z,5.35
2022-10-26T22:19:03.863Z,5.20
2022-10-26T22:21:34.595Z,5.72
2022-10-26T22:24:01.691Z,7.25
2022-10-26T22:26:29.963Z,6.57
2022-10-26T22:28:57.524Z,7.72
2022-10-26T22:31:27.371Z,7.60
2022-10-26T22:33:54.439Z,6.70
2022-10-26T22:36:21.912Z,7.25
2022-10-26T22:38:50.194Z,6.65
2022-10-26T22:41:17.815Z,5.80
2022-10-26T22:43:45.061Z,4.80
2022-10-26T22:46:12.010Z,5.07
2022-10-26T22:48:39.145Z,5.05
2022-10-26T22:51:07.009Z,4.65
2022-10-26T22:53:34.053Z,4.88
2022-10-26T22:56:01.483Z,4.70
2022-10-26T22:58:28.658Z,4.85
2022-10-26T23:01:15.759Z,5.00
2022-10-26T23:03:43.117Z,4.65
2022-10-26T23:06:11.497Z,5.03
2022-10-26T23:08:38.557Z,5.25
2022-10-26T23:11:07.202Z,5.10
2022-10-26T23:13:34.194Z,5.00
2022-10-26T23:16:05.308Z,6.20
2022-10-26T23:18:32.669Z,6.60
2022-10-26T23:20:59.681Z,7.50
2022-10-26T23:23:26.713Z,7.10
2022-10-26T23:25:53.745Z,7.65
2022-10-26T23:28:20.808Z,7.00
2022-10-26T23:30:48.181Z,7.00
2022-10-26T23:33:15.296Z,6.90
2022-10-26T23:35:42.489Z,7.00
2022-10-26T23:38:09.570Z,6.67
2022-10-26T23:40:36.636Z,8.18
2022-10-26T23:43:03.708Z,8.55
2022-10-26T23:45:30.749Z,7.40
2022-10-26T23:47:57.788Z,7.55
2022-10-26T23:50:24.873Z,6.90
2022-10-26T23:52:51.980Z,7.05
2022-10-26T23:55:19.056Z,6.47
2022-10-26T23:57:46.102Z,6.43
